Time;durP1;ratioP1;P1;durP2;ratioP2;P2;SDS_P1;SDS_P2;PMS_P1;PMS_P2;Temp;Humidity;BMP_temperature;BMP_pressure;BME280_temperature;BME280_humidity;BME280_pressure;Samples;Min_cycle;Max_cycle;Signal;HPM_P1;HPM_P2
2022/09/21 00:01:27;;;;;;;2.88;1.45;;;10.90;99.90;;;;;;4959494;28;89644;-71
2022/09/21 00:03:57;;;;;;;3.55;1.60;;;10.90;99.90;;;;;;4960102;28;91687;-71
2022/09/21 00:06:26;;;;;;;3.58;1.83;;;10.90;99.90;;;;;;4959995;28;90842;-71
2022/09/21 00:08:53;;;;;;;2.28;1.30;;;10.90;99.90;;;;;;4961377;28;87949;-71
2022/09/21 00:11:25;;;;;;;3.45;1.65;;;10.80;99.90;;;;;;4961094;28;88067;-70
2022/09/21 00:13:59;;;;;;;3.80;2.10;;;10.80;99.90;;;;;;4961144;28;89353;-71
2022/09/21 00:16:27;;;;;;;5.15;1.65;;;10.70;99.90;;;;;;4959621;28;92055;-71
2022/09/21 00:18:55;;;;;;;6.50;1.75;;;10.70;99.90;;;;;;4959638;28;89492;-71
2022/09/21 00:21:23;;;;;;;2.75;1.40;;;10.70;99.90;;;;;;4959793;28;91411;-71
2022/09/21 00:23:50;;;;;;;2.40;1.40;;;10.70;99.90;;;;;;4961027;28;88514;-71
2022/09/21 00:26:20;;;;;;;5.65;1.58;;;10.70;99.90;;;;;;4927457;28;91126;-70
2022/09/21 00:28:53;;;;;;;3.42;1.73;;;10.60;99.90;;;;;;4961427;28;88661;-71
2022/09/21 00:31:21;;;;;;;4.73;1.60;;;10.60;99.90;;;;;;4959618;28;90073;-70
2022/09/21 00:33:50;;;;;;;2.25;1.85;;;10.60;99.90;;;;;;4960917;28;88610;-70
2022/09/21 00:36:19;;;;;;;1.67;1.40;;;10.60;99.90;;;;;;4959700;28;88316;-70
2022/09/21 00:38:55;;;;;;;2.08;1.67;;;10.60;99.90;;;;;;4960760;28;88904;-70
2022/09/21 00:41:24;;;;;;;2.45;1.63;;;10.60;99.90;;;;;;4960907;28;88020;-70
2022/09/21 00:44:14;;;;;;;1.92;1.70;;;10.50;99.90;;;;;;4960592;28;88868;-71
2022/09/21 00:46:43;;;;;;;1.58;1.27;;;10.60;99.90;;;;;;4953080;28;91341;-70
2022/09/21 00:49:11;;;;;;;2.85;2.25;;;10.50;99.90;;;;;;4960624;28;88001;-71
2022/09/21 00:51:38;;;;;;;2.33;1.92;;;10.40;99.90;;;;;;4927299;28;90190;-71
2022/09/21 00:54:13;;;;;;;1.70;1.60;;;10.40;99.90;;;;;;4960740;28;88803;-71
2022/09/21 00:56:43;;;;;;;2.83;1.70;;;10.40;99.90;;;;;;4961076;28;87965;-71
2022/09/21 00:59:12;;;;;;;1.67;1.58;;;10.40;99.90;;;;;;4942784;28;89611;-71
2022/09/21 01:01:41;;;;;;;2.25;1.42;;;10.30;99.90;;;;;;4958264;28;88007;-71
2022/09/21 01:04:10;;;;;;;2.13;1.55;;;10.30;99.90;;;;;;4958842;28;92725;-71
2022/09/21 01:06:38;;;;;;;1.80;1.70;;;10.30;99.90;;;;;;4960377;28;89306;-71
2022/09/21 01:09:05;;;;;;;2.58;1.45;;;10.20;99.90;;;;;;4959098;28;88539;-70
2022/09/21 01:11:41;;;;;;;3.65;1.92;;;10.20;99.90;;;;;;4959231;28;88440;-70
2022/09/21 01:14:40;;;;;;;3.65;2.33;;;10.20;99.90;;;;;;4959126;28;88773;-70
2022/09/21 01:17:22;;;;;;;1.95;1.52;;;10.20;99.90;;;;;;4959886;28;88645;-70
2022/09/21 01:20:13;;;;;;;3.10;1.70;;;10.20;99.90;;;;;;4958937;28;89120;-70
2022/09/21 01:22:50;;;;;;;2.35;1.58;;;10.20;99.90;;;;;;4959065;28;91242;-70
2022/09/21 01:25:57;;;;;;;1.75;1.55;;;10.10;99.90;;;;;;4958798;28;89647;-70
2022/09/21 01:28:40;;;;;;;2.10;1.90;;;10.10;99.90;;;;;;4958345;28;91143;-70
2022/09/21 01:31:15;;;;;;;1.60;1.42;;;10.10;99.90;;;;;;4960061;28;88807;-70
2022/09/21 01:33:56;;;;;;;2.08;1.33;;;10.00;99.90;;;;;;4960164;28;88022;-70
2022/09/21 01:36:27;;;;;;;1.98;1.58;;;10.10;99.90;;;;;;4958804;28;88765;-71
2022/09/21 01:39:00;;;;;;;1.60;1.27;;;10.00;99.90;;;;;;4959220;28;88661;-71
2022/09/21 01:41:31;;;;;;;1.98;1.35;;;10.00;99.90;;;;;;4958747;28;88086;-71
2022/09/21 01:44:07;;;;;;;1.50;1.30;;;10.00;99.90;;;;;;4959744;28;88248;-70
2022/09/21 01:46:36;;;;;;;1.35;1.10;;;10.00;99.90;;;;;;4957881;28;91498;-70
2022/09/21 01:49:30;;;;;;;2.42;1.60;;;9.90;99.90;;;;;;4958760;28;91315;-70
2022/09/21 01:52:05;;;;;;;1.25;1.15;;;10.00;99.90;;;;;;4957088;28;88033;-70
2022/09/21 01:54:50;;;;;;;1.30;1.20;;;9.90;99.90;;;;;;4959791;28;88208;-70
2022/09/21 01:57:22;;;;;;;5.57;1.30;;;9.90;99.90;;;;;;4957565;28;90300;-70
2022/09/21 01:59:53;;;;;;;1.60;1.20;;;9.80;99.90;;;;;;4959634;28;89082;-70
2022/09/21 02:02:42;;;;;;;1.38;1.30;;;9.80;99.90;;;;;;4959685;28;87919;-70
2022/09/21 02:05:10;;;;;;;1.65;1.50;;;9.80;99.90;;;;;;4958400;28;88611;-70
2022/09/21 02:07:38;;;;;;;1.38;1.10;;;9.80;99.90;;;;;;4957986;28;88744;-70
2022/09/21 02:10:09;;;;;;;1.40;1.30;;;9.80;99.90;;;;;;4959495;28;88483;-70
2022/09/21 02:12:36;;;;;;;2.25;1.50;;;9.80;99.90;;;;;;4959160;28;88031;-70
2022/09/21 02:15:03;;;;;;;1.40;1.30;;;9.70;99.90;;;;;;4959889;28;88476;-70
2022/09/21 02:17:38;;;;;;;2.80;1.20;;;9.70;99.90;;;;;;4958996;28;88559;-70
2022/09/21 02:20:22;;;;;;;2.25;1.30;;;9.70;99.90;;;;;;4957897;28;91260;-70
2022/09/21 02:23:21;;;;;;;3.47;1.52;;;9.70;99.90;;;;;;4941334;28;89405;-70
2022/09/21 02:26:12;;;;;;;2.65;1.42;;;9.60;99.90;;;;;;4959291;28;88481;-70
2022/09/21 02:28:51;;;;;;;1.63;1.50;;;9.60;99.90;;;;;;4941324;28;100574;-70
2022/09/21 02:31:44;;;;;;;2.78;1.33;;;9.50;99.90;;;;;;4959411;28;88672;-70
2022/09/21 02:34:29;;;;;;;2.60;1.80;;;9.60;99.90;;;;;;4958270;28;88614;-70
2022/09/21 02:37:23;;;;;;;1.42;1.33;;;9.50;99.90;;;;;;4941539;28;91170;-70
2022/09/21 02:39:57;;;;;;;1.83;1.17;;;9.50;99.90;;;;;;4955550;28;93183;-70
2022/09/21 02:42:28;;;;;;;1.50;1.40;;;9.50;99.90;;;;;;4955912;28;93168;-70
2022/09/21 02:45:07;;;;;;;6.35;1.80;;;9.40;99.90;;;;;;4956820;28;92467;-70
2022/09/21 02:48:07;;;;;;;1.58;1.30;;;9.50;99.90;;;;;;4955476;28;92948;-70
2022/09/21 02:50:47;;;;;;;1.35;1.13;;;9.40;99.90;;;;;;4953666;28;98210;-70
2022/09/21 02:53:19;;;;;;;1.58;1.40;;;9.40;99.90;;;;;;4954730;28;98163;-70
2022/09/21 02:55:50;;;;;;;6.35;1.50;;;9.40;99.90;;;;;;4956701;28;92416;-70
2022/09/21 02:58:25;;;;;;;3.40;1.45;;;9.30;99.90;;;;;;4956765;28;92419;-70
2022/09/21 03:00:55;;;;;;;2.15;1.52;;;9.40;99.90;;;;;;4956271;28;93256;-70
2022/09/21 03:03:25;;;;;;;1.92;1.30;;;9.30;99.90;;;;;;4956340;28;93044;-70
2022/09/21 03:05:54;;;;;;;2.72;1.40;;;9.30;99.90;;;;;;4955175;28;92626;-70
2022/09/21 03:08:21;;;;;;;3.70;1.65;;;9.30;99.90;;;;;;4956313;28;103076;-70
2022/09/21 03:10:49;;;;;;;1.35;1.10;;;9.30;99.90;;;;;;4956051;28;93260;-70
2022/09/21 03:13:17;;;;;;;2.05;1.48;;;9.30;99.90;;;;;;4955147;28;94790;-70
2022/09/21 03:15:46;;;;;;;1.40;1.30;;;9.30;99.90;;;;;;4954917;28;94808;-70
2022/09/21 03:18:13;;;;;;;2.70;1.33;;;9.30;99.90;;;;;;4954013;28;92537;-70
2022/09/21 03:20:46;;;;;;;1.63;1.38;;;9.20;99.90;;;;;;4954520;28;98301;-70
2022/09/21 03:23:13;;;;;;;1.95;1.35;;;9.20;99.90;;;;;;4955826;28;93033;-70
2022/09/21 03:25:43;;;;;;;1.98;1.30;;;9.20;99.90;;;;;;4955131;28;92385;-70
2022/09/21 03:28:12;;;;;;;1.50;1.40;;;9.20;99.90;;;;;;4956245;28;92415;-70
2022/09/21 03:30:39;;;;;;;1.83;1.65;;;9.20;99.90;;;;;;4953996;28;112048;-70
2022/09/21 03:33:07;;;;;;;1.42;1.20;;;9.10;99.90;;;;;;4938751;28;95610;-70
2022/09/21 03:35:34;;;;;;;4.60;1.38;;;9.10;99.90;;;;;;4938545;28;92475;-70
2022/09/21 03:38:01;;;;;;;1.88;1.23;;;9.10;99.90;;;;;;4956326;28;92927;-70
2022/09/21 03:40:28;;;;;;;1.70;1.50;;;9.10;99.90;;;;;;4954886;28;95534;-70
2022/09/21 03:42:56;;;;;;;1.40;1.17;;;9.10;99.90;;;;;;4954711;28;94203;-70
2022/09/21 03:45:23;;;;;;;1.80;1.15;;;9.00;99.90;;;;;;4956084;28;92605;-70
2022/09/21 03:47:55;;;;;;;1.38;1.25;;;9.00;99.90;;;;;;4954417;28;92488;-70
2022/09/21 03:50:24;;;;;;;2.88;1.48;;;9.00;99.90;;;;;;4955864;28;93369;-70
2022/09/21 03:52:51;;;;;;;1.38;1.20;;;9.00;99.90;;;;;;4953787;28;109777;-70
2022/09/21 03:55:18;;;;;;;1.58;1.20;;;9.00;99.90;;;;;;4954635;28;92446;-70
2022/09/21 03:57:45;;;;;;;1.80;1.10;;;8.90;99.90;;;;;;4954910;28;91662;-70
2022/09/21 04:00:13;;;;;;;1.92;1.35;;;8.90;99.90;;;;;;4938383;28;96161;-70
2022/09/21 04:02:40;;;;;;;1.40;1.30;;;8.90;99.90;;;;;;4955540;28;92689;-70
2022/09/21 04:05:09;;;;;;;0.82;0.82;;;8.90;99.90;;;;;;4953394;28;94882;-70
2022/09/21 04:07:36;;;;;;;1.05;1.05;;;8.90;99.90;;;;;;4954469;28;92463;-70
2022/09/21 04:10:05;;;;;;;2.25;1.20;;;8.80;99.90;;;;;;4955761;28;93432;-70
2022/09/21 04:12:33;;;;;;;1.52;0.98;;;8.80;99.90;;;;;;4954132;28;92775;-70
2022/09/21 04:15:00;;;;;;;1.10;1.10;;;8.80;99.90;;;;;;4955723;28;92452;-70
2022/09/21 04:17:28;;;;;;;1.30;0.90;;;8.80;99.90;;;;;;4954061;28;92619;-70
2022/09/21 04:19:55;;;;;;;1.58;1.10;;;8.80;99.90;;;;;;4955351;28;93470;-70
2022/09/21 04:22:23;;;;;;;1.10;1.10;;;8.70;99.90;;;;;;4955690;28;92866;-70
2022/09/21 04:24:50;;;;;;;1.20;1.10;;;8.80;99.90;;;;;;4955385;28;92394;-70
2022/09/21 04:27:17;;;;;;;1.40;1.30;;;8.70;99.90;;;;;;4938354;28;92555;-70
2022/09/21 04:29:45;;;;;;;3.03;1.10;;;8.70;99.90;;;;;;4936260;28;98294;-70
2022/09/21 04:32:11;;;;;;;0.98;0.98;;;8.70;99.90;;;;;;4953902;28;97055;-70
2022/09/21 04:34:38;;;;;;;1.27;0.93;;;8.70;99.90;;;;;;4954235;28;92537;-70
2022/09/21 04:37:10;;;;;;;1.63;0.90;;;8.60;99.90;;;;;;4958643;28;92424;-70
2022/09/21 04:39:37;;;;;;;1.40;1.27;;;8.70;99.90;;;;;;4958598;28;93349;-70
2022/09/21 04:42:05;;;;;;;2.75;1.58;;;8.60;99.90;;;;;;4958641;28;92567;-70
2022/09/21 04:44:32;;;;;;;1.10;1.10;;;8.60;99.90;;;;;;4958659;28;92448;-70
2022/09/21 04:46:59;;;;;;;1.20;1.10;;;8.60;99.90;;;;;;4958931;28;92677;-70
2022/09/21 04:49:26;;;;;;;1.30;1.20;;;8.60;99.90;;;;;;4957935;28;107597;-70
2022/09/21 04:51:53;;;;;;;1.17;1.17;;;8.60;99.90;;;;;;4958375;28;93052;-70
2022/09/21 04:54:20;;;;;;;1.08;1.00;;;8.50;99.90;;;;;;4956248;28;94947;-70
2022/09/21 04:56:47;;;;;;;1.30;1.20;;;8.50;99.90;;;;;;4941110;28;92529;-70
2022/09/21 04:59:14;;;;;;;1.30;1.20;;;8.50;99.90;;;;;;4958266;28;93530;-70
2022/09/21 05:01:41;;;;;;;2.00;1.20;;;8.50;99.90;;;;;;4957215;28;93254;-70
2022/09/21 05:04:08;;;;;;;1.15;1.05;;;8.50;99.90;;;;;;4941031;28;92480;-70
2022/09/21 05:06:35;;;;;;;1.02;1.00;;;8.50;99.90;;;;;;4958489;28;92429;-70
2022/09/21 05:11:47;;;;;;;1.67;0.90;;;8.50;99.90;;;;;;4958418;28;92971;-70
2022/09/21 05:14:14;;;;;;;0.90;0.90;;;8.50;99.90;;;;;;4958478;28;92360;-70
2022/09/21 05:16:41;;;;;;;1.15;1.15;;;8.50;99.90;;;;;;4958172;28;92562;-71
2022/09/21 05:19:08;;;;;;;1.17;1.08;;;8.50;99.90;;;;;;4955325;28;95671;-71
2022/09/21 05:21:36;;;;;;;1.65;1.10;;;8.40;99.90;;;;;;4956826;28;95278;-71
2022/09/21 05:24:03;;;;;;;2.25;1.00;;;8.40;99.90;;;;;;4956782;28;92490;-71
2022/09/21 05:26:29;;;;;;;1.20;1.10;;;8.50;99.90;;;;;;4957499;28;103968;-71
2022/09/21 05:28:57;;;;;;;2.25;0.90;;;8.40;99.90;;;;;;4957672;28;93107;-71
2022/09/21 05:31:47;;;;;;;1.75;0.93;;;8.40;99.90;;;;;;4957749;28;92947;-71
2022/09/21 05:34:37;;;;;;;1.42;0.98;;;8.50;99.90;;;;;;4956589;28;92369;-71
2022/09/21 05:37:23;;;;;;;0.80;0.80;;;8.50;99.90;;;;;;4956724;28;91782;-71
2022/09/21 05:39:50;;;;;;;1.60;1.15;;;8.50;99.90;;;;;;4957489;28;94030;-71
2022/09/21 05:42:17;;;;;;;1.83;0.80;;;8.40;99.90;;;;;;4956435;28;93022;-71
2022/09/21 05:44:44;;;;;;;2.40;1.27;;;8.50;99.90;;;;;;4955124;28;95282;-71
2022/09/21 05:47:32;;;;;;;0.90;0.90;;;8.50;99.90;;;;;;4955919;28;92483;-71
2022/09/21 05:50:11;;;;;;;1.30;1.00;;;8.50;99.90;;;;;;4955766;28;95678;-71
2022/09/21 05:52:53;;;;;;;1.02;1.02;;;8.50;99.90;;;;;;4957562;28;92940;-71
2022/09/21 05:55:39;;;;;;;3.67;1.25;;;8.50;99.90;;;;;;4956605;28;92551;-71
2022/09/21 05:58:35;;;;;;;1.33;1.00;;;8.60;99.90;;;;;;4957416;28;92451;-71
2022/09/21 06:01:23;;;;;;;1.30;1.20;;;8.60;99.90;;;;;;4956994;28;93147;-71
2022/09/21 06:03:50;;;;;;;1.20;1.10;;;8.70;99.90;;;;;;4953065;28;93513;-71
2022/09/21 06:06:18;;;;;;;0.90;0.90;;;8.70;99.90;;;;;;4957404;28;92575;-71
2022/09/21 06:08:45;;;;;;;1.02;1.00;;;8.70;99.90;;;;;;4957384;28;92879;-71
2022/09/21 06:11:13;;;;;;;1.30;1.20;;;8.70;99.90;;;;;;4955872;28;95603;-71
2022/09/21 06:13:40;;;;;;;1.00;1.00;;;8.80;99.90;;;;;;4957041;28;95629;-71
2022/09/21 06:16:07;;;;;;;1.20;1.20;;;8.80;99.90;;;;;;4939239;28;92504;-71
2022/09/21 06:18:39;;;;;;;1.75;1.40;;;8.90;99.90;;;;;;4939592;28;92876;-71
2022/09/21 06:21:06;;;;;;;1.35;1.25;;;9.00;99.90;;;;;;4955302;28;95703;-71
2022/09/21 06:23:34;;;;;;;1.73;1.27;;;9.10;99.90;;;;;;4955657;28;92982;-71
2022/09/21 06:26:01;;;;;;;1.40;1.30;;;9.30;99.90;;;;;;4955534;28;92552;-71
2022/09/21 06:28:28;;;;;;;4.43;3.28;;;9.50;99.90;;;;;;4956149;28;92468;-71
2022/09/21 06:30:56;;;;;;;7.20;2.95;;;9.70;99.90;;;;;;4954742;28;111355;-71
2022/09/21 06:33:23;;;;;;;5.90;2.22;;;9.90;99.90;;;;;;4955325;28;95394;-71
2022/09/21 06:35:52;;;;;;;7.35;2.40;;;10.10;99.90;;;;;;4955577;28;94888;-71
2022/09/21 06:38:20;;;;;;;2.88;1.95;;;10.20;99.90;;;;;;4955538;28;92414;-71
2022/09/21 06:40:46;;;;;;;7.60;1.90;;;10.40;99.90;;;;;;4956322;28;93247;-71
2022/09/21 06:43:13;;;;;;;2.50;1.85;;;10.60;99.90;;;;;;4956403;28;93107;-71
2022/09/21 06:45:41;;;;;;;4.07;1.90;;;10.70;99.90;;;;;;4956782;28;92445;-71
2022/09/21 06:48:08;;;;;;;2.83;1.70;;;10.80;99.90;;;;;;4955317;28;92524;-71
2022/09/21 06:50:35;;;;;;;3.33;1.70;;;10.90;99.90;;;;;;4955474;28;92937;-71
2022/09/21 06:53:03;;;;;;;6.80;2.20;;;11.00;99.90;;;;;;4956836;28;92643;-71
2022/09/21 06:55:30;;;;;;;2.60;2.40;;;11.10;99.90;;;;;;4955007;28;102091;-71
2022/09/21 06:58:02;;;;;;;2.30;2.20;;;11.10;99.90;;;;;;4954362;28;92425;-71
2022/09/21 07:00:30;;;;;;;3.65;1.92;;;11.10;99.90;;;;;;4955504;28;94810;-71
2022/09/21 07:02:57;;;;;;;2.83;1.77;;;11.10;99.90;;;;;;4938614;28;95517;-71
2022/09/21 07:05:25;;;;;;;2.40;2.20;;;11.20;99.90;;;;;;4956722;28;92335;-71
2022/09/21 07:07:57;;;;;;;6.45;2.15;;;11.20;99.90;;;;;;4955455;28;92487;-71
2022/09/21 07:10:25;;;;;;;5.78;2.45;;;11.30;99.90;;;;;;4955089;28;93266;-71
2022/09/21 07:12:52;;;;;;;3.97;2.30;;;11.30;99.90;;;;;;4922500;28;104218;-71
2022/09/21 07:15:20;;;;;;;7.95;3.95;;;11.30;99.90;;;;;;4938699;28;92584;-71
2022/09/21 07:17:47;;;;;;;2.97;2.35;;;11.40;99.90;;;;;;4954922;28;91932;-71
2022/09/21 07:20:19;;;;;;;3.55;2.30;;;11.40;99.90;;;;;;4954607;28;94060;-71
2022/09/21 07:22:46;;;;;;;3.63;2.72;;;11.50;99.90;;;;;;4954852;28;92958;-71
2022/09/21 07:25:13;;;;;;;7.47;2.53;;;11.60;99.90;;;;;;4953678;28;94868;-71
2022/09/21 07:27:40;;;;;;;4.18;2.42;;;11.60;99.90;;;;;;4954930;28;92471;-71
2022/09/21 07:30:08;;;;;;;5.38;2.72;;;11.70;99.90;;;;;;4954360;28;95754;-71
2022/09/21 07:32:35;;;;;;;5.22;3.90;;;11.80;99.90;;;;;;4955831;28;94233;-71
2022/09/21 07:35:02;;;;;;;9.20;4.40;;;11.90;99.90;;;;;;4956071;28;92393;-71
2022/09/21 07:37:30;;;;;;;4.57;3.05;;;12.10;99.90;;;;;;4954653;28;101020;-71
2022/09/21 07:39:57;;;;;;;7.45;2.53;;;12.40;99.90;;;;;;4956082;28;93384;-71
2022/09/21 07:42:26;;;;;;;3.58;2.17;;;12.70;99.90;;;;;;4954844;28;92182;-71
2022/09/21 07:44:53;;;;;;;6.00;2.03;;;13.00;99.90;;;;;;4955031;28;92938;-71
2022/09/21 07:47:30;;;;;;;6.05;2.28;;;13.20;99.90;;;;;;4955671;28;92342;-71
2022/09/21 07:49:57;;;;;;;4.57;3.15;;;13.40;99.90;;;;;;4953294;28;95720;-71
2022/09/21 07:52:24;;;;;;;5.18;4.28;;;13.80;99.90;;;;;;4955662;28;95280;-71
2022/09/21 07:54:51;;;;;;;7.63;3.72;;;14.40;99.90;;;;;;4956067;28;92536;-71
2022/09/21 08:00:04;;;;;;;7.53;4.20;;;15.90;99.90;;;;;;4954057;28;95944;-71
2022/09/21 08:02:37;;;;;;;5.95;5.00;;;16.70;99.90;;;;;;4952398;28;92578;-71
2022/09/21 08:05:07;;;;;;;3.67;3.35;;;17.50;99.90;;;;;;4954205;28;92877;-72
2022/09/21 08:07:34;;;;;;;4.18;3.80;;;18.20;99.90;;;;;;4954772;28;91807;-71
2022/09/21 08:10:01;;;;;;;5.13;4.70;;;18.90;99.90;;;;;;4955652;28;95693;-72
2022/09/21 08:12:28;;;;;;;6.55;4.78;;;19.50;99.90;;;;;;4957645;28;92963;-72
2022/09/21 08:14:55;;;;;;;6.10;5.57;;;20.00;98.90;;;;;;4958153;28;94867;-72
2022/09/21 08:17:23;;;;;;;9.93;9.32;;;20.40;97.70;;;;;;4958463;28;92600;-72
2022/09/21 08:19:50;;;;;;;9.20;8.45;;;20.70;96.70;;;;;;4958969;28;93159;-72
2022/09/21 08:22:17;;;;;;;4.07;1.80;;;20.90;95.30;;;;;;4957088;28;95492;-72
2022/09/21 08:24:46;;;;;;;6.07;2.42;;;21.10;94.40;;;;;;4957437;28;92529;-72
2022/09/21 08:27:12;;;;;;;8.15;2.10;;;21.20;93.60;;;;;;4957388;28;92489;-73
2022/09/21 08:29:40;;;;;;;4.47;1.55;;;21.10;93.20;;;;;;4959029;28;93285;-73
2022/09/21 08:32:07;;;;;;;8.50;2.47;;;21.00;93.20;;;;;;4959025;28;93028;-73
2022/09/21 08:34:34;;;;;;;6.43;2.28;;;20.70;93.30;;;;;;4941163;28;92407;-73
2022/09/21 08:37:01;;;;;;;6.35;1.70;;;20.40;93.70;;;;;;4941261;28;92665;-73
2022/09/21 08:39:28;;;;;;;8.75;2.58;;;20.00;94.00;;;;;;4957395;28;95567;-73
2022/09/21 08:42:33;;;;;;;4.38;2.67;;;19.70;94.40;;;;;;4958543;28;95403;-73
2022/09/21 08:45:06;;;;;;;4.07;2.40;;;19.40;94.90;;;;;;4957289;28;92920;-73
2022/09/21 08:47:51;;;;;;;7.18;1.70;;;18.90;95.40;;;;;;4958530;28;92527;-72
2022/09/21 08:50:21;;;;;;;9.18;2.70;;;18.60;95.80;;;;;;4956761;28;95889;-72
2022/09/21 08:52:51;;;;;;;5.13;2.65;;;18.30;95.90;;;;;;4957055;28;95547;-72
2022/09/21 08:55:26;;;;;;;7.53;3.53;;;18.10;96.00;;;;;;4958281;28;92865;-73
2022/09/21 08:57:53;;;;;;;7.13;1.58;;;18.00;96.70;;;;;;4925466;28;91786;-72
2022/09/21 09:00:20;;;;;;;4.13;2.13;;;17.70;97.30;;;;;;4958154;28;93304;-72
2022/09/21 09:03:24;;;;;;;4.38;1.52;;;17.60;97.70;;;;;;4957183;28;93004;-72
2022/09/21 09:05:58;;;;;;;6.27;1.93;;;17.50;96.80;;;;;;4957403;28;95345;-72
2022/09/21 09:08:55;;;;;;;4.38;1.63;;;17.30;97.30;;;;;;4956615;28;92478;-72
2022/09/21 09:11:51;;;;;;;5.50;1.23;;;17.20;97.50;;;;;;4957966;28;93698;-72
2022/09/21 09:14:44;;;;;;;1.92;0.98;;;17.10;97.50;;;;;;4952262;28;93195;-72
2022/09/21 09:17:35;;;;;;;8.65;1.40;;;17.10;97.00;;;;;;4956415;28;93300;-72
2022/09/21 09:20:06;;;;;;;4.25;1.35;;;17.10;97.10;;;;;;4956648;28;92507;-72
2022/09/21 09:22:39;;;;;;;5.88;1.83;;;17.00;97.40;;;;;;4956034;28;93346;-72
2022/09/21 09:25:18;;;;;;;6.70;2.50;;;17.00;97.00;;;;;;4958283;28;92917;-72
2022/09/21 09:27:48;;;;;;;6.55;2.00;;;17.00;96.80;;;;;;4956633;28;92543;-72
2022/09/21 09:30:20;;;;;;;4.78;1.73;;;17.00;97.00;;;;;;4958192;28;92398;-72
2022/09/21 09:33:22;;;;;;;4.82;2.33;;;17.10;96.90;;;;;;4954894;28;98150;-72
2022/09/21 09:36:00;;;;;;;4.88;1.65;;;17.30;96.10;;;;;;4954234;28;97787;-72
2022/09/21 09:38:42;;;;;;;6.50;2.60;;;17.30;95.90;;;;;;4957911;28;92477;-72
2022/09/21 09:41:33;;;;;;;6.28;2.30;;;17.50;96.10;;;;;;4957896;28;92380;-72
2022/09/21 09:44:27;;;;;;;5.03;2.22;;;17.60;95.50;;;;;;4956279;28;93998;-72
2022/09/21 09:47:19;;;;;;;3.75;2.17;;;17.80;95.50;;;;;;4956442;28;95612;-72
2022/09/21 09:50:01;;;;;;;6.47;2.50;;;17.80;95.00;;;;;;4956633;28;92439;-72
2022/09/21 09:52:30;;;;;;;9.30;1.90;;;17.90;94.40;;;;;;4956195;28;91771;-72
2022/09/21 09:54:58;;;;;;;6.85;3.28;;;17.90;94.50;;;;;;4957455;28;93150;-72
2022/09/21 09:57:30;;;;;;;7.47;1.73;;;17.90;94.10;;;;;;4955805;28;95475;-72
2022/09/21 10:00:02;;;;;;;5.15;1.65;;;17.90;93.80;;;;;;4955283;28;95154;-72
2022/09/21 10:02:55;;;;;;;5.28;1.70;;;18.00;93.50;;;;;;4956938;28;92436;-72
2022/09/21 10:05:29;;;;;;;3.90;1.42;;;18.10;93.40;;;;;;4955824;28;95692;-73
2022/09/21 10:07:56;;;;;;;7.10;2.65;;;18.20;93.30;;;;;;4956036;28;95719;-72
2022/09/21 10:10:34;;;;;;;5.22;1.90;;;18.20;93.40;;;;;;4957176;28;92444;-73
2022/09/21 10:13:22;;;;;;;5.07;1.40;;;18.40;93.20;;;;;;4956311;28;92431;-72
2022/09/21 10:15:54;;;;;;;4.30;1.50;;;18.60;92.80;;;;;;4957132;28;93065;-72
2022/09/21 10:18:38;;;;;;;4.57;2.13;;;18.70;92.30;;;;;;4957337;28;93196;-72
2022/09/21 10:21:23;;;;;;;2.85;1.52;;;18.90;91.70;;;;;;4957461;28;92544;-73
2022/09/21 10:23:56;;;;;;;4.05;2.00;;;19.00;90.80;;;;;;4955997;28;92388;-73
2022/09/21 10:26:22;;;;;;;5.55;2.13;;;19.10;90.80;;;;;;4955939;28;95476;-72
2022/09/21 10:28:58;;;;;;;3.55;1.23;;;19.30;90.80;;;;;;4956838;28;95457;-72
2022/09/21 10:31:28;;;;;;;3.75;1.65;;;19.50;90.50;;;;;;4955407;28;92400;-72
2022/09/21 10:34:14;;;;;;;2.22;1.45;;;19.50;89.30;;;;;;4938315;28;92508;-73
2022/09/21 10:36:53;;;;;;;2.50;1.98;;;19.50;87.60;;;;;;4956705;28;93299;-73
2022/09/21 10:39:24;;;;;;;3.20;2.22;;;19.50;88.00;;;;;;4957069;28;92918;-73
2022/09/21 10:42:16;;;;;;;3.47;1.38;;;19.60;88.50;;;;;;4955636;28;92452;-73
2022/09/21 10:44:48;;;;;;;3.95;1.63;;;19.70;86.20;;;;;;4956756;28;91725;-73
2022/09/21 10:47:29;;;;;;;3.65;1.45;;;19.60;85.70;;;;;;4956882;28;93251;-73
2022/09/21 10:50:00;;;;;;;5.00;1.58;;;19.70;84.30;;;;;;4956542;28;93009;-73
2022/09/21 10:52:45;;;;;;;5.88;1.77;;;19.70;83.30;;;;;;4955730;28;94808;-74
2022/09/21 10:55:19;;;;;;;5.68;1.75;;;19.90;84.10;;;;;;4956959;28;92365;-73
2022/09/21 10:57:47;;;;;;;1.73;0.88;;;20.00;85.00;;;;;;4955095;28;93442;-73
2022/09/21 11:00:20;;;;;;;2.90;1.40;;;20.10;85.20;;;;;;4956581;28;93164;-73
2022/09/21 11:02:47;;;;;;;2.40;2.20;;;20.30;83.50;;;;;;4955067;28;92627;-73
2022/09/21 11:05:21;;;;;;;4.20;1.50;;;20.30;84.40;;;;;;4938911;28;92474;-73
2022/09/21 11:07:47;;;;;;;;;;;20.30;84.40;;;;;;4956846;28;93303;-73
2022/09/21 11:10:20;;;;;;;3.45;2.42;;;20.10;82.80;;;;;;4958005;28;92597;-73
2022/09/21 11:13:08;;;;;;;3.90;2.08;;;20.00;83.20;;;;;;4955405;28;92517;-73
2022/09/21 11:16:20;;;;;;;2.97;1.00;;;20.00;82.70;;;;;;4956417;28;93011;-73
2022/09/21 11:19:09;;;;;;;4.47;1.48;;;20.00;82.80;;;;;;4954531;28;95603;-73
2022/09/21 11:21:45;;;;;;;3.05;1.50;;;19.80;83.70;;;;;;4938564;28;98224;-73
2022/09/21 11:24:21;;;;;;;3.30;1.20;;;19.70;83.50;;;;;;4956071;28;92821;-73
2022/09/21 11:26:58;;;;;;;5.22;1.35;;;19.70;83.50;;;;;;4956278;28;93031;-73
2022/09/21 11:29:43;;;;;;;2.72;1.02;;;19.60;83.80;;;;;;4955287;28;93292;-73
2022/09/21 11:32:22;;;;;;;4.72;0.95;;;19.60;82.50;;;;;;4954578;28;95428;-73
2022/09/21 11:34:58;;;;;;;4.63;1.63;;;19.60;81.90;;;;;;4956241;28;92433;-73
2022/09/21 11:37:38;;;;;;;2.53;1.02;;;19.70;80.60;;;;;;4956458;28;91707;-73
2022/09/21 11:40:14;;;;;;;4.88;2.47;;;19.90;79.80;;;;;;4955018;28;93197;-73
2022/09/21 11:43:06;;;;;;;4.90;2.50;;;20.00;78.90;;;;;;4955888;28;93049;-73
2022/09/21 11:45:51;;;;;;;2.58;0.88;;;20.20;79.00;;;;;;4955930;28;94941;-73
2022/09/21 11:48:38;;;;;;;4.00;1.65;;;20.30;80.40;;;;;;4957746;28;95109;-73
2022/09/21 11:51:39;;;;;;;2.05;1.17;;;20.40;79.40;;;;;;4957883;28;93312;-73
2022/09/21 11:54:29;;;;;;;3.45;1.35;;;20.40;79.10;;;;;;4959499;28;92975;-73
2022/09/21 11:57:48;;;;;;;3.80;2.05;;;20.50;77.70;;;;;;4959389;28;92338;-73
2022/09/21 12:00:22;;;;;;;2.22;1.02;;;20.60;77.70;;;;;;4950620;28;92485;-73
2022/09/21 12:03:17;;;;;;;2.75;0.80;;;20.60;78.30;;;;;;4957832;28;93338;-73
2022/09/21 12:06:06;;;;;;;2.58;1.33;;;20.80;76.80;;;;;;4958090;28;91994;-73
2022/09/21 12:08:47;;;;;;;2.42;0.98;;;20.80;77.60;;;;;;4958350;28;93277;-73
2022/09/21 12:11:31;;;;;;;3.58;1.00;;;20.90;76.00;;;;;;4958155;28;92453;-73
2022/09/21 12:14:23;;;;;;;4.15;2.60;;;20.80;73.70;;;;;;4957946;28;95640;-73
2022/09/21 12:17:00;;;;;;;3.28;1.10;;;20.80;73.90;;;;;;4957316;28;95202;-73
2022/09/21 12:20:02;;;;;;;3.55;2.28;;;20.90;75.20;;;;;;4941718;28;92401;-73
2022/09/21 12:22:34;;;;;;;4.32;1.63;;;21.10;73.40;;;;;;4951558;28;92501;-73
2022/09/21 12:25:22;;;;;;;1.75;1.13;;;21.10;72.30;;;;;;4957456;28;93197;-73
2022/09/21 12:27:55;;;;;;;5.07;2.35;;;21.10;72.50;;;;;;4958586;28;92900;-73
2022/09/21 12:30:23;;;;;;;2.55;1.02;;;21.10;72.50;;;;;;4957520;28;93367;-73
2022/09/21 12:33:05;;;;;;;2.47;2.22;;;21.10;73.20;;;;;;4925589;28;91725;-73
2022/09/21 12:35:36;;;;;;;2.92;2.05;;;21.20;74.10;;;;;;4958833;28;93258;-73
2022/09/21 12:38:25;;;;;;;2.78;0.93;;;21.20;73.40;;;;;;4958574;28;93104;-76
2022/09/21 12:41:14;;;;;;;3.15;2.30;;;21.40;72.40;;;;;;4956472;28;94891;-72
2022/09/21 12:43:50;;;;;;;1.30;1.20;;;21.50;70.30;;;;;;4957488;28;92521;-72
2022/09/21 12:46:26;;;;;;;3.15;1.20;;;21.50;72.20;;;;;;4957535;28;93316;-72
2022/09/21 12:48:53;;;;;;;3.00;1.27;;;21.60;73.10;;;;;;4958481;28;93125;-71
2022/09/21 12:51:23;;;;;;;3.53;1.08;;;21.60;70.10;;;;;;4663802;28;10000860;-71
2022/09/21 12:53:57;;;;;;;3.78;0.90;;;21.50;69.60;;;;;;4668347;28;10001291;-71
2022/09/21 12:56:42;;;;;;;3.63;1.50;;;21.50;71.90;;;;;;5014788;28;92499;-71
2022/09/21 12:59:34;;;;;;;3.53;1.77;;;21.60;71.20;;;;;;5016124;28;91775;-71
2022/09/21 13:02:04;;;;;;;2.38;1.33;;;21.70;71.50;;;;;;4998656;28;93280;-71
2022/09/21 13:04:52;;;;;;;2.72;0.93;;;21.70;70.00;;;;;;4998842;28;92940;-71
2022/09/21 13:07:34;;;;;;;3.92;1.15;;;21.80;69.30;;;;;;5014312;28;95007;-71
2022/09/21 13:10:14;;;;;;;4.07;2.85;;;21.80;69.00;;;;;;4998530;28;93162;-71
2022/09/21 13:12:43;;;;;;;5.90;1.30;;;21.90;70.30;;;;;;4981580;28;95830;-71
2022/09/21 13:15:23;;;;;;;4.65;1.52;;;22.00;70.10;;;;;;5014880;28;92994;-71
2022/09/21 13:18:16;;;;;;;7.68;2.15;;;22.00;69.20;;;;;;5015393;28;92473;-71
2022/09/21 13:20:44;;;;;;;2.92;2.53;;;22.10;68.50;;;;;;4998471;28;92600;-71
2022/09/21 13:23:17;;;;;;;2.90;2.60;;;22.00;69.80;;;;;;5014699;28;93179;-71
2022/09/21 13:25:57;;;;;;;3.85;0.77;;;22.00;69.30;;;;;;4972298;28;91817;-71
2022/09/21 13:28:53;;;;;;;3.88;1.63;;;21.90;68.70;;;;;;4957966;28;92438;-71
2022/09/21 13:31:51;;;;;;;3.53;1.33;;;22.00;67.40;;;;;;4940394;28;92567;-71
2022/09/21 13:34:18;;;;;;;2.22;0.90;;;22.10;67.10;;;;;;4956486;28;95856;-71